Time;durP1;ratioP1;P1;durP2;ratioP2;P2;SDS_P1;SDS_P2;PMS_P1;PMS_P2;Temp;Humidity;BMP_temperature;BMP_pressure;BME280_temperature;BME280_humidity;BME280_pressure;Samples;Min_cycle;Max_cycle;Signal;HPM_P1;HPM_P2
2023/01/28 00:01:55;;;;;;;12.03;7.20;;;4.30;79.80;;;;;;5042437;28;20270;-65
2023/01/28 00:04:23;;;;;;;14.37;8.10;;;4.30;79.90;;;;;;5032277;28;20236;-65
2023/01/28 00:06:50;;;;;;;13.97;8.47;;;4.30;79.90;;;;;;5036310;28;20224;-67
2023/01/28 00:09:17;;;;;;;16.47;8.33;;;4.30;80.20;;;;;;5035315;28;20442;-65
2023/01/28 00:11:44;;;;;;;13.47;8.40;;;4.30;80.40;;;;;;5036249;28;20218;-65
2023/01/28 00:14:11;;;;;;;15.87;8.17;;;4.30;80.70;;;;;;5034616;28;20519;-65
2023/01/28 00:16:38;;;;;;;16.93;9.20;;;4.30;80.80;;;;;;5029207;28;20650;-65
2023/01/28 00:19:06;;;;;;;15.73;8.10;;;4.30;80.90;;;;;;5034941;28;20214;-65
2023/01/28 00:21:33;;;;;;;15.10;8.73;;;4.30;81.00;;;;;;5032474;28;20531;-65
2023/01/28 00:24:00;;;;;;;15.80;8.53;;;4.30;81.20;;;;;;5038224;28;20206;-65
2023/01/28 00:26:27;;;;;;;14.57;8.73;;;4.30;81.20;;;;;;5038565;28;20202;-63
2023/01/28 00:28:54;;;;;;;17.13;10.00;;;4.30;81.50;;;;;;5035226;28;20211;-65
2023/01/28 00:31:26;;;;;;;14.30;8.63;;;4.30;81.50;;;;;;5039167;28;20212;-65
2023/01/28 00:33:54;;;;;;;18.73;8.50;;;4.30;81.70;;;;;;5043566;28;20204;-65
2023/01/28 00:36:23;;;;;;;11.83;7.87;;;4.30;81.80;;;;;;5040789;28;20259;-64
2023/01/28 00:38:52;;;;;;;14.67;8.30;;;4.30;81.90;;;;;;5037862;28;20206;-65
2023/01/28 00:41:21;;;;;;;12.50;8.40;;;4.40;81.80;;;;;;5045446;28;20210;-65
2023/01/28 00:43:50;;;;;;;11.60;8.03;;;4.40;81.80;;;;;;5037219;28;20206;-65
2023/01/28 00:46:18;;;;;;;14.17;8.27;;;4.40;82.10;;;;;;5037029;28;20206;-65
2023/01/28 00:48:46;;;;;;;13.93;8.17;;;4.40;82.10;;;;;;5039304;28;20229;-65
2023/01/28 00:51:16;;;;;;;18.27;8.00;;;4.40;82.10;;;;;;5035166;28;20650;-66
2023/01/28 00:53:43;;;;;;;12.03;6.97;;;4.40;81.80;;;;;;5039561;28;20202;-65
2023/01/28 00:56:14;;;;;;;10.30;7.07;;;4.50;81.40;;;;;;5042007;28;20207;-65
2023/01/28 00:58:42;;;;;;;11.57;6.40;;;4.50;81.60;;;;;;5030735;28;20659;-65
2023/01/28 01:01:14;;;;;;;8.93;6.07;;;4.50;81.70;;;;;;5043256;28;20609;-65
2023/01/28 01:03:42;;;;;;;10.53;5.30;;;4.60;81.80;;;;;;5036782;28;20629;-65
2023/01/28 01:06:10;;;;;;;8.73;5.47;;;4.60;81.60;;;;;;5042762;28;20213;-65
2023/01/28 01:08:41;;;;;;;7.37;4.03;;;4.70;81.00;;;;;;5040232;28;20218;-65
2023/01/28 01:11:10;;;;;;;10.47;4.30;;;4.80;80.80;;;;;;5038835;28;20699;-65
2023/01/28 01:13:38;;;;;;;8.30;4.03;;;4.90;80.20;;;;;;5034588;28;20198;-65
2023/01/28 01:16:06;;;;;;;5.20;4.20;;;4.90;80.50;;;;;;5052155;28;20193;-65
2023/01/28 01:18:34;;;;;;;7.20;3.80;;;5.00;80.50;;;;;;5037455;28;20272;-65
2023/01/28 01:21:02;;;;;;;9.33;4.60;;;5.00;80.20;;;;;;5026901;28;20214;-65
2023/01/28 01:23:30;;;;;;;5.57;3.87;;;5.10;80.40;;;;;;5036485;28;20225;-65
2023/01/28 01:25:57;;;;;;;8.60;5.00;;;5.10;80.40;;;;;;5054184;28;20304;-64
2023/01/28 01:28:24;;;;;;;8.50;4.67;;;5.10;80.30;;;;;;5040674;28;20220;-65
2023/01/28 01:31:00;;;;;;;7.73;4.43;;;5.20;80.40;;;;;;5041035;28;20225;-65
2023/01/28 01:33:29;;;;;;;12.23;7.03;;;5.20;80.20;;;;;;5038567;28;20505;-64
2023/01/28 01:35:58;;;;;;;9.13;6.43;;;5.20;79.10;;;;;;5035128;28;20191;-65
2023/01/28 01:38:27;;;;;;;11.73;6.97;;;5.20;78.80;;;;;;5038323;28;20248;-65
2023/01/28 01:40:58;;;;;;;11.00;6.43;;;5.20;78.90;;;;;;5040028;28;20219;-65
2023/01/28 01:43:45;;;;;;;11.47;7.27;;;5.10;78.80;;;;;;5038528;28;20238;-65
2023/01/28 01:46:14;;;;;;;16.33;7.43;;;5.10;79.00;;;;;;5033698;28;20237;-65
2023/01/28 01:48:43;;;;;;;13.40;7.60;;;5.00;79.20;;;;;;5038139;28;20303;-64
2023/01/28 01:51:16;;;;;;;13.50;7.10;;;4.90;79.40;;;;;;5034023;28;20542;-64
2023/01/28 01:53:48;;;;;;;13.80;7.20;;;4.90;79.90;;;;;;5034947;28;20206;-65
2023/01/28 01:56:20;;;;;;;12.00;7.63;;;4.80;80.30;;;;;;5038642;28;20239;-65
2023/01/28 01:58:50;;;;;;;12.63;7.20;;;4.80;80.70;;;;;;5036914;28;20208;-65
2023/01/28 02:01:21;;;;;;;12.17;7.07;;;4.80;81.40;;;;;;5038960;28;20203;-65
2023/01/28 02:04:02;;;;;;;12.87;7.37;;;4.80;82.40;;;;;;5036185;28;20261;-66
2023/01/28 02:06:30;;;;;;;10.93;6.93;;;4.80;82.90;;;;;;5023169;28;20224;-65
2023/01/28 02:08:58;;;;;;;11.60;6.67;;;4.70;83.20;;;;;;5024655;28;20283;-65
2023/01/28 02:11:29;;;;;;;11.27;7.13;;;4.80;83.50;;;;;;5040675;28;20202;-65
2023/01/28 02:14:00;;;;;;;14.70;7.27;;;4.80;84.10;;;;;;5035009;28;20202;-65
2023/01/28 02:16:28;;;;;;;12.30;7.43;;;4.80;84.40;;;;;;5030043;28;20211;-65
2023/01/28 02:18:55;;;;;;;11.97;7.90;;;4.80;84.30;;;;;;5032036;28;20668;-65
2023/01/28 02:21:38;;;;;;;12.13;7.73;;;4.80;84.40;;;;;;5033889;28;20210;-65
2023/01/28 02:24:15;;;;;;;12.20;7.93;;;4.80;84.40;;;;;;5040094;28;20202;-65
2023/01/28 02:26:57;;;;;;;13.07;8.50;;;4.80;83.90;;;;;;5038381;28;20209;-65
2023/01/28 02:29:37;;;;;;;16.07;8.03;;;4.80;84.40;;;;;;5023505;28;20222;-65
2023/01/28 02:32:44;;;;;;;13.87;8.60;;;4.80;84.40;;;;;;5035022;28;20623;-65
2023/01/28 02:35:21;;;;;;;11.93;7.50;;;4.80;84.60;;;;;;5020367;28;20219;-64
2023/01/28 02:38:02;;;;;;;12.10;7.67;;;4.80;84.50;;;;;;5047219;28;20215;-65
2023/01/28 02:41:00;;;;;;;10.50;6.77;;;4.90;84.60;;;;;;5034669;28;20198;-65
2023/01/28 02:43:35;;;;;;;12.47;7.30;;;4.80;84.70;;;;;;5031914;28;20246;-65
2023/01/28 02:49:03;;;;;;;14.10;7.20;;;4.90;84.90;;;;;;5039636;28;20621;-65
2023/01/28 02:51:48;;;;;;;10.80;8.07;;;4.90;84.90;;;;;;5035999;28;20221;-65
2023/01/28 02:54:21;;;;;;;14.47;7.93;;;4.90;85.00;;;;;;5038227;28;20198;-65
2023/01/28 02:57:02;;;;;;;11.20;7.13;;;4.90;85.00;;;;;;5022788;28;20210;-65
2023/01/28 02:59:41;;;;;;;17.07;8.07;;;4.90;85.00;;;;;;5034864;28;20298;-65
2023/01/28 03:02:13;;;;;;;11.70;7.43;;;4.90;85.10;;;;;;5028577;28;20260;-65
2023/01/28 03:05:19;;;;;;;12.90;8.17;;;4.90;85.20;;;;;;5020917;28;20230;-65
2023/01/28 03:07:48;;;;;;;10.27;6.70;;;4.90;85.30;;;;;;5031774;28;20195;-65
2023/01/28 03:10:19;;;;;;;11.77;7.60;;;4.80;85.30;;;;;;5034163;28;20564;-65
2023/01/28 03:39:07;;;;;;;11.80;7.90;;;4.40;86.60;;;;;;5038621;28;20293;-65
2023/01/28 03:41:34;;;;;;;15.20;8.23;;;4.40;86.80;;;;;;5033878;28;20266;-65
2023/01/28 03:46:47;;;;;;;16.03;7.77;;;4.30;87.00;;;;;;5043777;28;20213;-65
2023/01/28 03:49:16;;;;;;;13.03;7.63;;;4.30;87.10;;;;;;5037313;28;20305;-65
2023/01/28 03:51:45;;;;;;;17.80;9.23;;;4.20;87.10;;;;;;5033508;28;20215;-65
2023/01/28 03:54:12;;;;;;;13.17;8.00;;;4.20;87.20;;;;;;5019753;28;20265;-65
2023/01/28 03:56:40;;;;;;;15.57;8.73;;;4.20;87.20;;;;;;5032291;28;20201;-65
2023/01/28 03:59:07;;;;;;;16.03;7.97;;;4.20;87.30;;;;;;5035404;28;20240;-65
2023/01/28 04:01:35;;;;;;;13.90;8.23;;;4.20;87.30;;;;;;5020729;28;20232;-65
2023/01/28 04:04:02;;;;;;;15.63;8.43;;;4.20;87.40;;;;;;5029353;28;20238;-65
2023/01/28 04:06:31;;;;;;;14.97;8.50;;;4.10;87.40;;;;;;5033378;28;20664;-65
2023/01/28 04:09:16;;;;;;;15.63;8.23;;;4.10;87.50;;;;;;5043366;28;20574;-65
2023/01/28 04:11:54;;;;;;;17.03;8.77;;;4.10;87.70;;;;;;5035370;28;20209;-64
2023/01/28 04:14:30;;;;;;;16.73;8.33;;;4.10;87.80;;;;;;5035034;28;20650;-65
2023/01/28 04:17:06;;;;;;;14.93;8.40;;;4.10;87.90;;;;;;5035406;28;20205;-65
2023/01/28 04:19:35;;;;;;;16.10;8.30;;;4.10;87.90;;;;;;5033013;28;20209;-65
2023/01/28 04:22:06;;;;;;;13.83;8.60;;;4.10;88.00;;;;;;5035090;28;20229;-65
2023/01/28 04:24:34;;;;;;;13.83;8.30;;;4.10;88.00;;;;;;5038431;28;20217;-65
2023/01/28 04:27:01;;;;;;;14.73;8.47;;;4.10;88.00;;;;;;5035830;28;20269;-65
2023/01/28 04:29:28;;;;;;;15.07;9.10;;;4.10;88.00;;;;;;5035525;28;20213;-64
2023/01/28 04:32:00;;;;;;;15.90;9.30;;;4.20;88.10;;;;;;5017474;28;20203;-65
2023/01/28 04:34:50;;;;;;;15.87;8.67;;;4.20;88.10;;;;;;5031854;28;20224;-65
2023/01/28 04:37:37;;;;;;;14.10;8.60;;;4.20;87.90;;;;;;5037486;28;20228;-65
2023/01/28 04:40:13;;;;;;;13.83;8.43;;;4.20;87.80;;;;;;5033241;28;20713;-65
2023/01/28 04:42:56;;;;;;;14.97;9.57;;;4.10;87.80;;;;;;5039491;28;20595;-65
2023/01/28 04:45:43;;;;;;;16.93;8.40;;;4.10;87.90;;;;;;5030577;28;20285;-65
2023/01/28 04:48:30;;;;;;;17.23;9.77;;;4.20;87.80;;;;;;5032289;28;20288;-64
2023/01/28 04:51:18;;;;;;;12.47;7.83;;;4.20;87.70;;;;;;5030826;28;20203;-65
2023/01/28 04:54:23;;;;;;;13.13;8.67;;;4.20;87.60;;;;;;5037369;28;20245;-65
2023/01/28 04:56:52;;;;;;;13.60;8.80;;;4.20;87.60;;;;;;5033492;28;20203;-65
2023/01/28 04:59:19;;;;;;;13.10;9.23;;;4.20;87.50;;;;;;5034107;28;20218;-65
2023/01/28 05:01:47;;;;;;;13.47;9.57;;;4.20;87.50;;;;;;5028992;28;20203;-65
2023/01/28 05:04:16;;;;;;;16.03;9.77;;;4.20;87.70;;;;;;5031569;28;20598;-65
2023/01/28 05:06:43;;;;;;;16.83;9.63;;;4.20;87.80;;;;;;5036247;28;20219;-65
2023/01/28 05:09:21;;;;;;;17.57;9.70;;;4.20;88.00;;;;;;5033303;28;20240;-65
2023/01/28 05:11:50;;;;;;;18.47;10.03;;;4.20;87.90;;;;;;5037979;28;20290;-65
2023/01/28 05:14:17;;;;;;;15.80;9.40;;;4.20;87.80;;;;;;5037475;28;20302;-66
2023/01/28 05:16:50;;;;;;;22.17;10.03;;;4.20;87.80;;;;;;5037253;28;20644;-65
2023/01/28 05:19:18;;;;;;;16.13;9.90;;;4.20;88.00;;;;;;5037993;28;20645;-64
2023/01/28 05:21:46;;;;;;;14.40;9.43;;;4.20;88.20;;;;;;5039936;28;20205;-65
2023/01/28 05:24:22;;;;;;;17.67;9.73;;;4.20;88.30;;;;;;5041560;28;20546;-65
2023/01/28 05:26:49;;;;;;;16.23;10.20;;;4.20;88.50;;;;;;5050171;28;20392;-65
2023/01/28 05:29:17;;;;;;;15.47;10.17;;;4.20;88.60;;;;;;5028614;28;20584;-65
2023/01/28 05:31:44;;;;;;;18.07;10.20;;;4.20;88.70;;;;;;5041627;28;20263;-65
2023/01/28 05:34:11;;;;;;;15.77;9.67;;;4.20;88.80;;;;;;5039344;28;20202;-65
2023/01/28 05:36:40;;;;;;;17.13;9.87;;;4.20;88.90;;;;;;5039616;28;20296;-65
2023/01/28 05:39:25;;;;;;;14.90;9.97;;;4.20;89.00;;;;;;5039785;28;20296;-65
2023/01/28 05:41:52;;;;;;;15.40;9.77;;;4.20;89.00;;;;;;5037311;28;20210;-65
2023/01/28 05:44:19;;;;;;;18.83;10.43;;;4.20;89.10;;;;;;5037666;28;20213;-65
2023/01/28 05:47:10;;;;;;;16.00;9.80;;;4.20;89.00;;;;;;5040048;28;20346;-65
2023/01/28 05:49:53;;;;;;;17.33;10.83;;;4.20;89.10;;;;;;5033498;28;20222;-65
2023/01/28 05:52:39;;;;;;;17.07;10.53;;;4.20;89.00;;;;;;5026502;28;20212;-65
2023/01/28 05:55:14;;;;;;;15.50;10.43;;;4.30;88.80;;;;;;5038299;28;20196;-65
2023/01/28 05:57:43;;;;;;;18.33;10.07;;;4.30;88.10;;;;;;5039088;28;20234;-65
2023/01/28 06:00:14;;;;;;;15.63;9.20;;;4.20;87.60;;;;;;5025214;28;20194;-65
2023/01/28 06:02:43;;;;;;;16.33;10.70;;;4.20;87.30;;;;;;5035414;28;20300;-65
2023/01/28 06:05:13;;;;;;;14.10;9.20;;;4.20;87.20;;;;;;5034868;28;20210;-65
2023/01/28 06:07:48;;;;;;;16.13;10.27;;;4.20;87.00;;;;;;5035176;28;20692;-64
2023/01/28 06:10:18;;;;;;;18.57;10.63;;;4.20;86.80;;;;;;5037762;28;20231;-64
2023/01/28 06:12:46;;;;;;;15.03;9.80;;;4.10;86.70;;;;;;5037603;28;20217;-65
2023/01/28 06:15:28;;;;;;;14.13;9.93;;;4.10;86.70;;;;;;5036649;28;20199;-65
2023/01/28 06:18:22;;;;;;;15.90;10.00;;;4.10;86.50;;;;;;5033572;28;20303;-65
2023/01/28 06:20:50;;;;;;;17.10;9.53;;;4.10;86.30;;;;;;5037876;28;20261;-65
2023/01/28 06:23:18;;;;;;;15.83;10.07;;;4.10;86.00;;;;;;5038742;28;20209;-65
2023/01/28 06:25:45;;;;;;;17.67;9.97;;;4.10;85.90;;;;;;5040652;28;20251;-64
2023/01/28 06:28:15;;;;;;;17.03;10.97;;;4.10;85.90;;;;;;5046341;28;20685;-64
2023/01/28 06:30:42;;;;;;;15.20;9.87;;;4.20;85.90;;;;;;5038443;28;20232;-66
2023/01/28 06:33:09;;;;;;;18.00;10.30;;;4.20;85.90;;;;;;5037288;28;20517;-64
2023/01/28 06:35:36;;;;;;;15.50;10.47;;;4.20;86.00;;;;;;5036338;28;20209;-65
2023/01/28 06:38:03;;;;;;;17.73;10.00;;;4.20;86.00;;;;;;5035309;28;20203;-65
2023/01/28 06:40:30;;;;;;;17.53;9.97;;;4.20;86.00;;;;;;5038135;28;20229;-65
2023/01/28 06:42:57;;;;;;;19.80;10.87;;;4.20;86.10;;;;;;5036691;28;20210;-65
2023/01/28 06:45:25;;;;;;;18.37;10.37;;;4.20;86.00;;;;;;5029079;28;20217;-64
2023/01/28 06:47:52;;;;;;;18.97;11.00;;;4.30;86.10;;;;;;5037630;28;20232;-64
2023/01/28 06:50:19;;;;;;;15.73;10.53;;;4.30;86.10;;;;;;5035151;28;20562;-65
2023/01/28 06:52:46;;;;;;;15.70;9.53;;;4.30;86.10;;;;;;5039899;28;20240;-65
2023/01/28 06:55:13;;;;;;;15.87;9.63;;;4.30;86.10;;;;;;5039051;28;20260;-65
2023/01/28 06:57:41;;;;;;;14.83;10.57;;;4.20;85.90;;;;;;5034452;28;20208;-65
2023/01/28 07:00:11;;;;;;;19.47;11.53;;;4.30;86.10;;;;;;5038080;28;20212;-65
2023/01/28 07:02:39;;;;;;;17.10;10.03;;;4.20;86.20;;;;;;5035071;28;20547;-62
2023/01/28 07:05:06;;;;;;;15.10;10.90;;;4.20;86.30;;;;;;5034977;28;20281;-65
2023/01/28 07:07:33;;;;;;;20.37;11.00;;;4.20;86.60;;;;;;5032839;28;20210;-65
2023/01/28 07:10:00;;;;;;;18.47;11.33;;;4.20;86.80;;;;;;5034804;28;20572;-65
2023/01/28 07:12:27;;;;;;;16.80;10.60;;;4.20;86.80;;;;;;5037795;28;20272;-63
2023/01/28 07:14:54;;;;;;;22.07;11.17;;;4.10;86.80;;;;;;5030624;28;20198;-63
2023/01/28 07:17:21;;;;;;;17.67;11.20;;;4.10;87.10;;;;;;5040770;28;20197;-63
2023/01/28 07:19:48;;;;;;;20.40;11.40;;;4.10;87.30;;;;;;5036855;28;20202;-64
2023/01/28 07:22:15;;;;;;;21.37;11.07;;;4.10;87.30;;;;;;5036392;28;20537;-65
2023/01/28 07:24:43;;;;;;;16.67;10.30;;;4.10;87.50;;;;;;5039333;28;20275;-65
2023/01/28 07:27:10;;;;;;;17.93;10.03;;;4.20;87.50;;;;;;5038921;28;20633;-65
2023/01/28 07:29:37;;;;;;;15.83;10.50;;;4.20;87.70;;;;;;5034328;28;20225;-65
2023/01/28 07:32:06;;;;;;;16.73;10.27;;;4.30;87.60;;;;;;5033288;28;20206;-63
2023/01/28 07:34:33;;;;;;;16.63;11.10;;;4.20;87.50;;;;;;5038599;28;20201;-65
2023/01/28 07:37:00;;;;;;;15.83;10.07;;;4.30;87.50;;;;;;5037746;28;20195;-63
2023/01/28 07:39:27;;;;;;;19.13;11.30;;;4.30;87.40;;;;;;5025786;28;20221;-63
2023/01/28 07:41:54;;;;;;;16.43;10.50;;;4.30;87.20;;;;;;5039551;28;20602;-64
2023/01/28 07:44:38;;;;;;;17.83;11.70;;;4.30;87.10;;;;;;5043396;28;20221;-63
2023/01/28 07:47:06;;;;;;;20.07;11.93;;;4.30;86.80;;;;;;5034127;28;20199;-63
2023/01/28 07:49:33;;;;;;;18.93;11.47;;;4.20;86.50;;;;;;5038470;28;20276;-63
2023/01/28 07:52:01;;;;;;;20.67;11.63;;;4.20;86.00;;;;;;5037927;28;20628;-63
2023/01/28 07:54:28;;;;;;;21.63;12.73;;;4.20;86.10;;;;;;5032836;28;20203;-64
2023/01/28 07:56:55;;;;;;;16.03;10.73;;;4.20;86.20;;;;;;5034391;28;20284;-63
2023/01/28 07:59:22;;;;;;;19.50;12.07;;;4.20;86.20;;;;;;5041206;28;20207;-63
2023/01/28 08:01:50;;;;;;;19.30;12.37;;;4.30;86.10;;;;;;5029690;28;20206;-64
2023/01/28 08:04:20;;;;;;;20.50;12.57;;;4.30;86.10;;;;;;5033571;28;20264;-63
2023/01/28 08:06:48;;;;;;;19.20;12.03;;;4.40;86.20;;;;;;5037627;28;20198;-63
2023/01/28 08:09:14;;;;;;;19.07;12.13;;;4.50;86.00;;;;;;5026182;28;20206;-63
2023/01/28 08:11:41;;;;;;;19.33;12.53;;;4.50;85.80;;;;;;5035231;28;20249;-63
2023/01/28 08:14:10;;;;;;;22.03;12.67;;;4.60;85.30;;;;;;5043257;28;20668;-63
2023/01/28 08:16:37;;;;;;;18.40;12.73;;;4.60;85.30;;;;;;5030487;28;20545;-63
2023/01/28 08:19:04;;;;;;;22.17;13.40;;;4.70;85.50;;;;;;5035864;28;20550;-63
2023/01/28 08:21:31;;;;;;;28.80;14.30;;;4.70;85.70;;;;;;5039263;28;20206;-63
2023/01/28 08:23:58;;;;;;;22.00;12.67;;;4.80;85.80;;;;;;5030293;28;20210;-63
2023/01/28 08:26:25;;;;;;;20.70;12.70;;;4.80;85.70;;;;;;5037317;28;20637;-63
2023/01/28 08:28:52;;;;;;;21.70;12.60;;;4.80;85.70;;;;;;5038706;28;20214;-63
2023/01/28 08:31:19;;;;;;;20.03;12.80;;;4.80;85.40;;;;;;5031215;28;20546;-63
2023/01/28 08:33:46;;;;;;;18.60;12.20;;;4.80;85.10;;;;;;5028665;28;20199;-64
2023/01/28 08:36:14;;;;;;;18.90;12.40;;;4.70;85.10;;;;;;5028966;28;20568;-64
2023/01/28 08:38:42;;;;;;;20.17;12.90;;;4.70;85.10;;;;;;5034193;28;20260;-63
2023/01/28 08:41:09;;;;;;;21.43;11.87;;;4.70;85.50;;;;;;5039446;28;20225;-63
2023/01/28 08:43:36;;;;;;;18.10;12.93;;;4.70;85.70;;;;;;5036459;28;20542;-63
2023/01/28 08:46:06;;;;;;;22.30;11.93;;;4.70;85.90;;;;;;5042750;28;20217;-63
2023/01/28 08:48:33;;;;;;;21.00;11.93;;;4.70;86.00;;;;;;5037484;28;20236;-63
2023/01/28 08:51:00;;;;;;;21.93;11.93;;;4.80;86.00;;;;;;5038218;28;20213;-64
2023/01/28 08:53:27;;;;;;;21.07;11.73;;;4.70;86.00;;;;;;5039419;28;20655;-63
2023/01/28 08:55:54;;;;;;;19.27;12.63;;;4.80;86.20;;;;;;5037705;28;20273;-64
2023/01/28 08:58:22;;;;;;;18.30;11.53;;;4.80;86.50;;;;;;5035054;28;20195;-63
2023/01/28 09:00:49;;;;;;;20.47;12.03;;;4.90;86.40;;;;;;5043891;28;20245;-63
2023/01/28 09:03:17;;;;;;;21.27;13.80;;;4.90;86.40;;;;;;5035348;28;20245;-63
2023/01/28 09:05:44;;;;;;;19.00;12.90;;;4.90;86.40;;;;;;5042185;28;20212;-63
2023/01/28 09:08:13;;;;;;;21.63;12.20;;;5.00;86.60;;;;;;5042477;28;20205;-63
2023/01/28 09:10:41;;;;;;;20.57;12.40;;;5.10;86.50;;;;;;5039560;28;20297;-63
2023/01/28 09:13:11;;;;;;;21.07;12.23;;;5.20;86.00;;;;;;5041572;28;20282;-63
2023/01/28 09:15:39;;;;;;;18.00;12.60;;;5.20;85.60;;;;;;5040015;28;20198;-63
2023/01/28 09:18:06;;;;;;;21.40;12.43;;;5.20;84.90;;;;;;5037128;28;20281;-64
2023/01/28 09:20:33;;;;;;;20.43;12.23;;;5.20;84.80;;;;;;5036786;28;20632;-63
2023/01/28 09:23:01;;;;;;;25.07;12.77;;;5.20;84.40;;;;;;5042256;28;20207;-63
2023/01/28 09:25:28;;;;;;;23.33;13.33;;;5.20;84.70;;;;;;5041434;28;20215;-63
2023/01/28 09:27:56;;;;;;;27.10;14.10;;;5.20;85.10;;;;;;5033780;28;20203;-63
2023/01/28 09:30:23;;;;;;;24.40;13.73;;;5.20;85.20;;;;;;5040790;28;20214;-63
2023/01/28 09:32:52;;;;;;;22.20;14.23;;;5.30;85.40;;;;;;5043647;28;20514;-63
2023/01/28 09:35:19;;;;;;;23.87;13.60;;;5.30;85.20;;;;;;5040553;28;20203;-64
2023/01/28 09:37:47;;;;;;;25.37;14.50;;;5.40;85.00;;;;;;5035062;28;20628;-63
2023/01/28 09:40:28;;;;;;;25.80;14.20;;;5.50;85.40;;;;;;5041026;28;20269;-64
2023/01/28 09:43:05;;;;;;;26.87;16.27;;;5.60;85.40;;;;;;5033261;28;20251;-63
2023/01/28 09:45:42;;;;;;;25.10;13.93;;;5.70;84.50;;;;;;5033293;28;20829;-64
2023/01/28 09:48:16;;;;;;;29.43;17.57;;;5.80;83.60;;;;;;5038594;28;20719;-63
2023/01/28 09:50:51;;;;;;;25.60;16.53;;;5.80;83.30;;;;;;5032819;28;20244;-63
2023/01/28 09:53:29;;;;;;;38.33;18.70;;;5.90;82.60;;;;;;5037672;28;20197;-64
2023/01/28 09:56:03;;;;;;;34.47;19.50;;;5.90;81.90;;;;;;5032802;28;20546;-63
2023/01/28 09:58:30;;;;;;;27.50;16.57;;;5.90;81.50;;;;;;5036271;28;20195;-64
2023/01/28 10:01:19;;;;;;;20.93;13.37;;;6.00;81.60;;;;;;5038304;28;20223;-64
2023/01/28 10:04:11;;;;;;;20.20;13.83;;;5.90;80.00;;;;;;5031872;28;20762;-63
2023/01/28 10:07:12;;;;;;;20.37;13.13;;;6.00;80.30;;;;;;5036041;28;20217;-63
2023/01/28 10:10:01;;;;;;;22.40;11.73;;;6.00;80.30;;;;;;5032224;28;20203;-64
2023/01/28 10:12:48;;;;;;;16.53;11.70;;;6.00;79.30;;;;;;5034028;28;20273;-64
2023/01/28 10:15:44;;;;;;;18.23;11.33;;;6.10;79.00;;;;;;5033028;28;20201;-63
2023/01/28 10:18:12;;;;;;;21.40;11.47;;;6.10;78.90;;;;;;5037420;28;20633;-63
2023/01/28 10:20:48;;;;;;;20.03;12.97;;;6.10;78.30;;;;;;5034536;28;20631;-64
2023/01/28 10:23:29;;;;;;;22.33;12.13;;;6.10;77.80;;;;;;5035183;28;20587;-64
2023/01/28 10:26:00;;;;;;;18.23;11.77;;;6.20;78.10;;;;;;5034957;28;20229;-63
2023/01/28 10:28:29;;;;;;;17.77;11.70;;;6.20;78.00;;;;;;5038944;28;20230;-63
2023/01/28 10:30:56;;;;;;;19.47;12.37;;;6.40;77.40;;;;;;5035594;28;20249;-64
2023/01/28 10:33:38;;;;;;;17.17;11.33;;;6.50;77.00;;;;;;5040017;28;20546;-63
2023/01/28 10:36:08;;;;;;;19.43;11.73;;;6.60;76.90;;;;;;5031659;28;20191;-64
2023/01/28 10:38:35;;;;;;;17.97;11.50;;;6.70;76.70;;;;;;5034991;28;20208;-64
2023/01/28 10:41:03;;;;;;;20.73;11.23;;;6.80;75.10;;;;;;5034007;28;20587;-63
2023/01/28 10:43:35;;;;;;;19.87;10.90;;;6.90;75.00;;;;;;5031634;28;20221;-63
2023/01/28 10:46:05;;;;;;;16.97;9.03;;;6.90;75.30;;;;;;5034314;28;20199;-63
2023/01/28 10:48:36;;;;;;;17.47;11.70;;;7.00;75.00;;;;;;5040002;28;20699;-63
2023/01/28 10:51:05;;;;;;;17.97;12.43;;;7.00;73.90;;;;;;5035413;28;20225;-63
2023/01/28 10:53:39;;;;;;;18.27;12.17;;;7.10;73.40;;;;;;5040463;28;20208;-63
2023/01/28 10:56:22;;;;;;;17.07;11.53;;;7.10;73.00;;;;;;5038187;28;20194;-63
2023/01/28 10:59:05;;;;;;;18.33;11.43;;;7.10;73.80;;;;;;5035684;28;20263;-63
2023/01/28 11:01:47;;;;;;;15.57;10.63;;;7.20;74.40;;;;;;5038140;28;20203;-63
2023/01/28 11:04:18;;;;;;;17.33;10.63;;;7.40;73.60;;;;;;5038712;28;20281;-64
2023/01/28 11:07:14;;;;;;;24.47;12.60;;;7.50;72.70;;;;;;5034784;28;20202;-63
2023/01/28 11:09:48;;;;;;;18.60;9.90;;;7.50;72.60;;;;;;5034848;28;20213;-64
2023/01/28 11:12:26;;;;;;;15.37;10.50;;;7.60;73.50;;;;;;5037382;28;20217;-63
2023/01/28 11:15:02;;;;;;;17.93;11.23;;;7.80;72.50;;;;;;5030754;28;20529;-64
2023/01/28 11:17:36;;;;;;;23.97;11.07;;;7.90;71.30;;;;;;5031654;28;20209;-64
2023/01/28 11:20:19;;;;;;;17.90;11.03;;;8.00;72.20;;;;;;5041406;28;20268;-64
2023/01/28 11:22:47;;;;;;;18.47;10.80;;;8.00;71.50;;;;;;5034930;28;20199;-64
2023/01/28 11:25:29;;;;;;;17.63;11.43;;;8.10;71.10;;;;;;5035427;28;20195;-64
2023/01/28 11:27:58;;;;;;;19.20;10.53;;;8.10;69.80;;;;;;5036564;28;20213;-63
2023/01/28 11:30:27;;;;;;;14.30;10.00;;;8.10;70.60;;;;;;5034827;28;20226;-63
2023/01/28 11:32:59;;;;;;;13.70;9.57;;;8.10;70.10;;;;;;5035497;28;20283;-64
2023/01/28 11:35:29;;;;;;;14.77;9.40;;;8.00;69.40;;;;;;5034488;28;20580;-64
2023/01/28 11:37:58;;;;;;;11.33;8.23;;;8.00;69.70;;;;;;5031311;28;20194;-64
2023/01/28 11:40:26;;;;;;;13.40;9.43;;;8.10;69.40;;;;;;5032134;28;20195;-64
2023/01/28 11:42:56;;;;;;;13.53;8.87;;;8.10;68.10;;;;;;5038699;28;20187;-64
2023/01/28 11:45:52;;;;;;;16.67;11.00;;;8.10;67.70;;;;;;5038061;28;20200;-63
2023/01/28 11:48:52;;;;;;;17.23;10.13;;;8.20;68.10;;;;;;5035132;28;20230;-64
2023/01/28 11:51:35;;;;;;;14.13;9.13;;;8.30;69.40;;;;;;5035445;28;20243;-64
2023/01/28 11:54:31;;;;;;;11.97;8.53;;;8.50;67.90;;;;;;5034941;28;20200;-64
2023/01/28 11:57:07;;;;;;;10.83;8.13;;;8.60;66.90;;;;;;5026745;28;20193;-64
2023/01/28 12:00:08;;;;;;;13.20;8.50;;;8.60;66.30;;;;;;5034755;28;20225;-63
2023/01/28 12:02:44;;;;;;;13.93;8.70;;;8.60;65.30;;;;;;5035279;28;20208;-63
2023/01/28 12:05:23;;;;;;;13.37;9.03;;;8.60;66.30;;;;;;5034545;28;20206;-64
2023/01/28 12:08:01;;;;;;;13.67;7.97;;;8.60;66.80;;;;;;5028852;28;20543;-63
2023/01/28 12:11:12;;;;;;;14.13;8.53;;;8.60;66.00;;;;;;5031187;28;20261;-64
2023/01/28 12:14:05;;;;;;;13.97;8.30;;;8.60;65.70;;;;;;5032416;28;20217;-63
2023/01/28 12:17:19;;;;;;;12.77;8.90;;;8.60;65.00;;;;;;5039707;28;20543;-63
2023/01/28 12:20:10;;;;;;;11.67;7.40;;;8.50;64.80;;;;;;5036469;28;20199;-63
2023/01/28 12:22:56;;;;;;;11.00;7.33;;;8.40;62.60;;;;;;5035513;28;20260;-63
2023/01/28 12:25:58;;;;;;;12.53;7.27;;;8.50;63.20;;;;;;5033655;28;20221;-64
2023/01/28 12:28:43;;;;;;;9.73;7.40;;;8.50;64.10;;;;;;5037875;28;20216;-64
2023/01/28 12:31:51;;;;;;;9.53;6.37;;;8.70;64.70;;;;;;5031660;28;20266;-63
2023/01/28 12:34:36;;;;;;;8.23;6.27;;;8.80;61.20;;;;;;5035135;28;20528;-63
2023/01/28 12:37:18;;;;;;;8.90;5.70;;;8.80;61.40;;;;;;5029854;28;20199;-64
2023/01/28 12:39:45;;;;;;;15.10;7.57;;;8.80;61.00;;;;;;5029142;28;20625;-63
2023/01/28 12:42:30;;;;;;;12.30;6.70;;;8.80;61.30;;;;;;5035989;28;20215;-64
2023/01/28 12:45:24;;;;;;;10.53;6.27;;;8.90;61.30;;;;;;5036981;28;20207;-64
2023/01/28 12:48:02;;;;;;;11.10;6.70;;;8.90;61.40;;;;;;5034985;28;20301;-64
2023/01/28 12:50:36;;;;;;;8.17;6.40;;;8.90;62.10;;;;;;5034721;28;20201;-63
2023/01/28 12:53:30;;;;;;;9.90;5.60;;;8.90;61.80;;;;;;5035986;28;20514;-63
2023/01/28 12:56:08;;;;;;;12.73;5.93;;;8.80;61.70;;;;;;5032225;28;20500;-63
2023/01/28 12:58:46;;;;;;;9.27;6.37;;;8.80;62.10;;;;;;5035854;28;20187;-64
2023/01/28 13:01:19;;;;;;;8.50;5.03;;;8.80;63.40;;;;;;5028441;28;20207;-63
2023/01/28 13:04:05;;;;;;;11.13;6.17;;;8.90;63.40;;;;;;5032710;28;20244;-64
2023/01/28 13:06:43;;;;;;;8.00;5.80;;;9.00;62.90;;;;;;5033417;28;20201;-63
2023/01/28 13:09:19;;;;;;;7.37;5.57;;;9.10;61.40;;;;;;5043550;28;20625;-64
2023/01/28 13:11:50;;;;;;;13.43;5.67;;;9.30;61.00;;;;;;5034180;28;20208;-63
2023/01/28 13:14:19;;;;;;;7.37;5.70;;;9.30;60.70;;;;;;5034947;28;20261;-64
2023/01/28 13:16:46;;;;;;;9.77;5.77;;;9.30;61.10;;;;;;5032429;28;20204;-64
2023/01/28 13:19:21;;;;;;;8.47;5.87;;;9.30;59.80;;;;;;5032069;28;20202;-63
2023/01/28 13:21:48;;;;;;;9.07;5.70;;;9.20;60.80;;;;;;5042963;28;20304;-64
2023/01/28 13:24:15;;;;;;;7.23;5.37;;;9.30;59.90;;;;;;5028722;28;20601;-64
2023/01/28 13:26:55;;;;;;;8.30;6.10;;;9.30;60.60;;;;;;5033055;28;20573;-65
2023/01/28 13:29:31;;;;;;;8.30;5.57;;;9.40;60.70;;;;;;5039968;28;20641;-64
2023/01/28 13:32:01;;;;;;;10.57;5.83;;;9.50;60.60;;;;;;5028842;28;20660;-64
2023/01/28 13:34:34;;;;;;;7.87;5.60;;;9.60;58.70;;;;;;5038807;28;20234;-64
2023/01/28 13:37:42;;;;;;;10.77;6.20;;;9.60;59.00;;;;;;5037445;28;20569;-64
2023/01/28 13:40:11;;;;;;;10.23;6.10;;;9.60;58.80;;;;;;5022474;28;20216;-65
2023/01/28 13:42:39;;;;;;;7.67;5.50;;;9.70;59.40;;;;;;5034493;28;20220;-64
2023/01/28 13:45:33;;;;;;;8.33;5.50;;;9.70;58.60;;;;;;5040995;28;20197;-68
2023/01/28 13:48:17;;;;;;;9.63;6.33;;;9.70;59.20;;;;;;5035263;28;20211;-64